createdAt,value
2022-09-05T00:04:56.555Z,4.70
2022-09-05T00:10:13.385Z,8.52
2022-09-05T00:15:47.980Z,7.63
2022-09-05T00:24:26.945Z,8.80
2022-09-05T00:26:57.745Z,9.68
2022-09-05T00:32:07.144Z,7.15
2022-09-05T00:37:10.980Z,7.70
2022-09-05T00:42:22.198Z,7.65
2022-09-05T00:47:36.096Z,8.43
2022-09-05T00:53:06.653Z,9.20
2022-09-05T00:58:54.212Z,9.38
2022-09-05T01:04:22.389Z,10.10
2022-09-05T01:09:31.307Z,8.80
2022-09-05T01:20:19.089Z,7.45
2022-09-05T01:25:37.394Z,7.38
2022-09-05T01:31:12.091Z,7.45
2022-09-05T01:36:35.106Z,9.73
2022-09-05T01:42:08.600Z,7.65
2022-09-05T01:47:21.175Z,7.55
2022-09-05T01:52:57.417Z,7.22
2022-09-05T01:58:09.247Z,7.75
2022-09-05T02:03:20.059Z,7.30
2022-09-05T02:08:27.907Z,6.93
2022-09-05T02:13:35.970Z,7.43
2022-09-05T02:18:37.658Z,6.43
2022-09-05T02:23:50.524Z,6.22
2022-09-05T02:29:13.096Z,6.43
2022-09-05T02:34:47.484Z,6.78
2022-09-05T02:45:07.530Z,6.78
2022-09-05T02:45:52.764Z,6.50
2022-09-05T02:55:03.359Z,5.65
2022-09-05T02:57:43.078Z,5.88
2022-09-05T03:02:25.611Z,7.38
2022-09-05T03:08:15.312Z,8.90
2022-09-05T03:13:48.183Z,9.55
2022-09-05T03:19:08.709Z,7.80
2022-09-05T03:24:25.537Z,7.80
2022-09-05T03:30:15.561Z,8.82
2022-09-05T03:35:47.250Z,7.03
2022-09-05T03:41:07.147Z,7.40
2022-09-05T03:46:34.409Z,8.90
2022-09-05T03:57:19.887Z,7.60
2022-09-05T03:57:38.670Z,10.02
2022-09-05T04:08:07.918Z,8.10
2022-09-05T04:08:41.765Z,7.72
2022-09-05T04:13:47.719Z,9.07
2022-09-05T04:18:54.930Z,11.50
2022-09-05T04:24:07.651Z,10.55
2022-09-05T04:29:24.401Z,8.48
2022-09-05T04:34:45.796Z,9.27
2022-09-05T04:39:49.834Z,12.32
2022-09-05T04:44:58.480Z,11.05
2022-09-05T04:50:06.594Z,7.47
2022-09-05T04:55:15.742Z,9.18
2022-09-05T05:06:30.119Z,7.68
2022-09-05T05:17:59.868Z,9.20
2022-09-05T05:18:15.973Z,6.30
2022-09-05T05:23:07.885Z,7.20
2022-09-05T05:28:23.926Z,7.07
2022-09-05T05:33:28.283Z,8.13
2022-09-05T05:38:37.415Z,9.15
2022-09-05T05:48:57.120Z,12.10
2022-09-05T05:54:03.099Z,12.63
2022-09-05T05:59:33.983Z,9.43
2022-09-05T06:05:00.718Z,5.68
2022-09-05T06:14:56.458Z,9.02
2022-09-05T06:16:12.598Z,9.95
2022-09-05T06:22:07.806Z,10.63
2022-09-05T06:27:29.233Z,8.93
2022-09-05T06:32:58.658Z,9.77
2022-09-05T06:38:18.256Z,12.43
2022-09-05T06:43:38.690Z,7.78
2022-09-05T06:48:46.438Z,9.27
2022-09-05T06:54:26.126Z,7.55
2022-09-05T06:59:46.198Z,10.00
2022-09-05T07:05:39.485Z,10.82
2022-09-05T07:10:57.341Z,9.00
2022-09-05T07:16:16.407Z,11.90
2022-09-05T07:21:53.629Z,9.65
2022-09-05T07:26:59.675Z,10.07
2022-09-05T07:32:06.413Z,8.90
2022-09-05T07:37:26.605Z,8.20
2022-09-05T07:42:39.775Z,9.20
2022-09-05T07:48:11.916Z,7.40
2022-09-05T07:57:00.668Z,8.70
2022-09-05T07:58:43.975Z,7.57
2022-09-05T08:03:45.730Z,7.68
2022-09-05T08:10:05.210Z,7.03
2022-09-05T08:14:57.647Z,7.50
2022-09-05T08:20:23.748Z,5.35
2022-09-05T08:25:36.379Z,6.57
2022-09-05T08:31:06.797Z,6.40
2022-09-05T08:36:22.456Z,6.75
2022-09-05T08:41:50.319Z,5.97
2022-09-05T08:47:19.650Z,5.70
2022-09-05T08:52:51.098Z,4.97
2022-09-05T08:58:24.917Z,6.07
2022-09-05T09:03:58.611Z,4.50
2022-09-05T09:09:12.513Z,4.10
2022-09-05T09:14:32.518Z,4.43
2022-09-05T09:20:00.631Z,4.68
2022-09-05T09:25:15.986Z,4.20
2022-09-05T09:30:20.465Z,4.05
2022-09-05T09:35:50.874Z,3.67
2022-09-05T09:41:08.067Z,3.00
2022-09-05T09:46:39.322Z,3.90
2022-09-05T09:51:52.263Z,3.53
2022-09-05T09:57:05.957Z,2.67
2022-09-05T10:04:05.733Z,2.55
2022-09-05T10:10:43.932Z,2.38
2022-09-05T10:13:26.877Z,2.55
2022-09-05T10:18:54.480Z,2.15
2022-09-05T10:24:19.952Z,2.80
2022-09-05T10:29:46.800Z,3.03
2022-09-05T10:35:07.644Z,2.20
2022-09-05T10:40:25.672Z,2.53
2022-09-05T10:45:49.161Z,2.60
2022-09-05T10:51:04.423Z,1.98
2022-09-05T10:56:11.969Z,2.55
2022-09-05T11:02:22.429Z,3.05
2022-09-05T11:07:15.252Z,2.50
2022-09-05T11:12:35.431Z,2.20
2022-09-05T11:17:46.149Z,3.03
2022-09-05T11:22:49.828Z,3.33
2022-09-05T11:27:54.916Z,3.08
2022-09-05T11:39:51.441Z,2.50
2022-09-05T11:39:51.880Z,2.28
2022-09-05T11:44:48.158Z,1.80
2022-09-05T11:50:22.155Z,2.20
2022-09-05T11:55:30.144Z,2.53
2022-09-05T12:01:40.998Z,2.53
2022-09-05T12:06:50.697Z,1.70
2022-09-05T12:11:59.002Z,2.20
2022-09-05T12:17:10.402Z,1.95
2022-09-05T12:22:37.371Z,1.88
2022-09-05T12:27:46.234Z,2.38
2022-09-05T12:40:55.163Z,2.08
2022-09-05T12:44:41.481Z,2.38
2022-09-05T12:50:14.615Z,1.63
2022-09-05T12:55:17.467Z,1.60
2022-09-05T13:03:06.703Z,2.05
2022-09-05T13:05:57.726Z,1.73
2022-09-05T13:14:50.775Z,1.52
2022-09-05T13:16:28.810Z,1.77
2022-09-05T13:21:31.708Z,1.70
2022-09-05T13:26:33.500Z,1.77
2022-09-05T13:37:56.013Z,1.90
2022-09-05T13:38:10.928Z,1.48
2022-09-05T13:42:40.071Z,1.80
2022-09-05T13:48:02.040Z,1.50
2022-09-05T13:53:17.002Z,1.35
2022-09-05T13:58:18.597Z,1.75
2022-09-05T14:03:58.946Z,1.92
2022-09-05T14:09:42.108Z,1.70
2022-09-05T14:20:30.395Z,1.60
2022-09-05T14:25:40.039Z,1.52
2022-09-05T14:35:22.129Z,1.85
2022-09-05T14:37:42.302Z,1.40
2022-09-05T14:42:32.861Z,1.65
2022-09-05T14:48:06.564Z,1.25
2022-09-05T15:02:52.080Z,1.48
2022-09-05T15:12:18.699Z,1.60
2022-09-05T15:14:55.834Z,1.50
2022-09-05T15:20:07.689Z,1.50
2022-09-05T15:25:20.349Z,1.65
2022-09-05T15:30:36.494Z,1.50
2022-09-05T15:35:43.465Z,1.42
2022-09-05T15:40:45.161Z,1.50
2022-09-05T15:45:50.001Z,1.75
2022-09-05T15:50:58.030Z,1.58
2022-09-05T15:56:20.280Z,1.63
2022-09-05T16:01:48.580Z,1.40
2022-09-05T16:10:39.492Z,1.40
2022-09-05T16:12:31.823Z,1.52
2022-09-05T16:23:32.898Z,1.50
2022-09-05T16:23:39.684Z,1.45
2022-09-05T16:28:42.852Z,1.50
2022-09-05T16:33:47.585Z,1.33
2022-09-05T16:38:56.940Z,1.30
2022-09-05T16:44:27.344Z,1.25
2022-09-05T16:49:42.063Z,1.50
2022-09-05T16:54:54.636Z,1.60
2022-09-05T16:59:57.450Z,1.58
2022-09-05T17:05:12.971Z,1.38
2022-09-05T17:10:21.055Z,1.40
2022-09-05T17:15:35.362Z,1.75
2022-09-05T17:20:39.586Z,1.60
2022-09-05T17:29:32.522Z,2.13
2022-09-05T17:31:49.677Z,1.40
2022-09-05T17:36:40.965Z,1.30
2022-09-05T17:41:54.973Z,1.70
2022-09-05T17:47:15.234Z,3.40
2022-09-05T17:52:22.001Z,4.88
2022-09-05T17:57:29.505Z,5.35
2022-09-05T18:02:56.412Z,3.78
2022-09-05T18:08:00.236Z,2.78
2022-09-05T18:13:32.182Z,2.20
2022-09-05T18:19:27.846Z,2.55
2022-09-05T18:24:07.958Z,3.60
2022-09-05T18:29:57.350Z,6.82
2022-09-05T18:35:11.285Z,8.30
2022-09-05T18:40:36.706Z,6.57
2022-09-05T18:45:52.913Z,3.40
2022-09-05T18:50:55.984Z,3.10
2022-09-05T18:56:29.013Z,2.78
2022-09-05T19:01:37.409Z,2.80
2022-09-05T19:06:46.221Z,2.33
2022-09-05T19:12:18.282Z,3.08
2022-09-05T19:17:46.870Z,2.20
2022-09-05T19:23:15.325Z,2.40
2022-09-05T19:36:46.550Z,3.10
2022-09-05T19:36:57.979Z,3.42
2022-09-05T19:40:41.809Z,2.47
2022-09-05T19:47:36.819Z,3.42
2022-09-05T19:50:07.273Z,2.50
2022-09-05T19:55:24.526Z,3.53
2022-09-05T20:00:28.189Z,3.50
2022-09-05T20:05:30.875Z,3.40
2022-09-05T20:10:35.963Z,2.70
2022-09-05T20:15:38.262Z,2.92
2022-09-05T20:21:08.973Z,3.80
2022-09-05T20:26:12.057Z,4.10
2022-09-05T20:31:25.374Z,3.38
2022-09-05T20:43:12.032Z,3.47
2022-09-05T20:43:36.452Z,3.10
2022-09-05T20:50:22.362Z,3.17
2022-09-05T20:54:17.179Z,2.85
2022-09-05T20:58:24.752Z,3.30
2022-09-05T21:03:40.696Z,3.67
2022-09-05T21:08:42.697Z,9.15
2022-09-05T21:13:52.623Z,8.23
2022-09-05T21:18:55.375Z,4.43
2022-09-05T21:24:16.365Z,3.60
2022-09-05T21:29:32.470Z,2.90
2022-09-05T21:34:45.157Z,3.17
2022-09-05T21:40:00.326Z,3.10
2022-09-05T21:47:41.107Z,2.80
2022-09-05T21:50:31.566Z,2.85
2022-09-05T21:59:33.586Z,2.53
2022-09-05T22:00:57.135Z,3.15
2022-09-05T22:05:59.087Z,2.50
2022-09-05T22:11:08.375Z,3.10
2022-09-05T22:16:14.151Z,3.40
2022-09-05T22:21:33.334Z,3.05
2022-09-05T22:26:54.068Z,2.75
2022-09-05T22:32:07.116Z,2.53
2022-09-05T22:37:08.821Z,3.28
2022-09-05T22:42:11.380Z,2.83
2022-09-05T22:47:13.354Z,2.25
2022-09-05T22:52:15.235Z,3.88
2022-09-05T22:57:17.171Z,3.63
2022-09-05T23:02:18.953Z,3.03
2022-09-05T23:07:20.984Z,2.67
2022-09-05T23:12:22.698Z,2.97
2022-09-05T23:17:24.360Z,2.53
2022-09-05T23:22:26.445Z,2.95
2022-09-05T23:27:29.944Z,3.20
2022-09-05T23:32:31.815Z,2.90
2022-09-05T23:37:33.481Z,3.00
2022-09-05T23:42:35.250Z,2.53
2022-09-05T23:47:37.664Z,2.72
2022-09-05T23:52:40.531Z,2.92
2022-09-05T23:57:42.911Z,2.85
